createdAt,value
2019-03-06T03:15:19.266Z,16.57
2019-03-06T03:17:48.465Z,16.87
2019-03-06T03:20:17.701Z,17.70
2019-03-06T03:22:46.823Z,15.33
2019-03-06T03:25:16.530Z,18.97
2019-03-06T03:27:46.602Z,21.07
2019-03-06T03:30:15.914Z,16.80
2019-03-06T03:32:45.131Z,18.80
2019-03-06T03:35:14.803Z,17.17
2019-03-06T03:37:43.936Z,18.57
2019-03-06T03:40:14.899Z,18.47
2019-03-06T03:42:44.043Z,17.53
2019-03-06T03:45:15.776Z,18.67
2019-03-06T03:47:44.905Z,17.03
2019-03-06T03:50:14.105Z,18.77
2019-03-06T03:52:43.456Z,19.07
2019-03-06T03:55:16.935Z,20.03
2019-03-06T03:57:46.212Z,19.27
2019-03-06T04:00:20.776Z,18.37
2019-03-06T04:02:50.468Z,17.97
2019-03-06T04:05:19.594Z,19.77
2019-03-06T04:07:48.736Z,20.00
2019-03-06T04:10:17.851Z,19.20
2019-03-06T04:12:46.987Z,19.07
2019-03-06T04:15:17.276Z,17.70
2019-03-06T04:17:46.939Z,19.03
2019-03-06T04:20:17.284Z,18.43
2019-03-06T04:22:46.429Z,17.70
2019-03-06T04:25:15.583Z,16.70
2019-03-06T04:27:45.472Z,19.63
2019-03-06T04:30:18.490Z,18.73
2019-03-06T04:33:06.820Z,19.23
2019-03-06T04:35:35.971Z,15.97
2019-03-06T04:38:05.110Z,16.13
2019-03-06T04:40:34.227Z,14.27
2019-03-06T04:43:04.119Z,14.30
2019-03-06T04:45:34.283Z,15.77
2019-03-06T04:48:06.512Z,15.10
2019-03-06T04:50:35.723Z,13.93
2019-03-06T04:53:04.848Z,14.37
2019-03-06T04:55:33.987Z,14.20
2019-03-06T04:58:03.863Z,12.43
2019-03-06T05:00:33.005Z,13.57
2019-03-06T05:03:02.143Z,13.00
2019-03-06T05:05:31.265Z,12.20
2019-03-06T05:08:00.451Z,11.20
2019-03-06T05:10:31.659Z,10.70
2019-03-06T05:13:02.759Z,13.53
2019-03-06T05:15:31.895Z,13.90
2019-03-06T05:18:02.659Z,11.77
2019-03-06T05:20:31.883Z,11.13
2019-03-06T05:23:04.979Z,10.67
2019-03-06T05:25:36.142Z,10.23
2019-03-06T05:28:06.047Z,11.37
2019-03-06T05:30:35.165Z,10.90
2019-03-06T05:33:09.283Z,11.30
2019-03-06T05:35:59.592Z,11.57
2019-03-06T05:38:37.713Z,14.83
2019-03-06T05:41:06.851Z,11.50
2019-03-06T05:43:35.979Z,11.50
2019-03-06T05:46:05.095Z,11.83
2019-03-06T05:48:34.222Z,12.00
2019-03-06T05:51:03.343Z,13.23
2019-03-06T05:53:32.462Z,12.97
2019-03-06T05:56:03.387Z,11.90
2019-03-06T05:58:32.519Z,11.70
2019-03-06T06:01:02.903Z,14.27
2019-03-06T06:03:32.044Z,11.53
2019-03-06T06:06:01.240Z,13.27
2019-03-06T06:08:33.435Z,11.43
2019-03-06T06:11:03.240Z,12.17
2019-03-06T06:13:32.370Z,11.53
2019-03-06T06:16:01.682Z,10.43
2019-03-06T06:18:31.071Z,11.00
2019-03-06T06:21:03.044Z,12.50
2019-03-06T06:23:52.218Z,11.63
2019-03-06T06:26:22.985Z,11.13
2019-03-06T06:28:52.115Z,12.47
2019-03-06T06:31:21.231Z,12.70
2019-03-06T06:33:51.322Z,11.33
2019-03-06T06:36:20.460Z,13.67
2019-03-06T06:38:49.874Z,13.03
2019-03-06T06:41:19.014Z,13.47
2019-03-06T06:43:48.139Z,14.00
2019-03-06T06:46:17.267Z,11.73
2019-03-06T06:48:46.432Z,11.87
2019-03-06T06:51:22.003Z,10.93
2019-03-06T06:54:00.117Z,12.67
2019-03-06T06:57:05.860Z,11.37
2019-03-06T06:59:44.019Z,11.70
2019-03-06T07:02:47.152Z,12.73
2019-03-06T07:05:17.931Z,12.80
2019-03-06T07:07:49.019Z,13.63
2019-03-06T07:10:38.124Z,12.27
2019-03-06T07:13:14.963Z,13.00
2019-03-06T07:15:54.246Z,13.37
2019-03-06T07:18:25.011Z,12.80
2019-03-06T07:20:58.727Z,13.73
2019-03-06T07:23:46.075Z,14.00
2019-03-06T07:26:26.092Z,14.03
2019-03-06T07:29:01.453Z,12.70
2019-03-06T07:31:44.243Z,12.50
2019-03-06T07:34:15.019Z,12.67
2019-03-06T07:36:45.796Z,10.97
2019-03-06T07:39:21.170Z,11.30
2019-03-06T07:42:04.275Z,10.20
2019-03-06T07:44:44.067Z,9.33
2019-03-06T07:47:14.892Z,9.80
2019-03-06T07:49:49.638Z,9.40
2019-03-06T07:52:38.891Z,10.37
2019-03-06T07:55:11.000Z,9.13
2019-03-06T07:58:16.851Z,9.67
2019-03-06T08:00:45.987Z,11.30
2019-03-06T08:03:16.439Z,9.17
2019-03-06T08:05:45.565Z,10.77
2019-03-06T08:08:14.959Z,11.30
2019-03-06T08:10:44.071Z,9.63
2019-03-06T08:13:15.116Z,9.33
2019-03-06T08:15:52.108Z,9.03
2019-03-06T08:18:26.189Z,9.37
2019-03-06T08:21:06.111Z,8.77
2019-03-06T08:23:37.147Z,8.67
2019-03-06T08:26:06.279Z,8.37
2019-03-06T08:28:35.403Z,7.97
2019-03-06T08:31:06.179Z,7.73
2019-03-06T08:33:35.875Z,9.90
2019-03-06T08:36:04.994Z,10.10
2019-03-06T08:38:34.692Z,8.43
2019-03-06T08:41:06.994Z,8.57
2019-03-06T08:43:34.632Z,9.07
2019-03-06T08:46:05.403Z,9.00
2019-03-06T08:48:54.680Z,7.77
2019-03-06T08:51:31.571Z,8.10
2019-03-06T08:54:02.318Z,8.80
2019-03-06T08:56:38.776Z,9.87
2019-03-06T08:59:25.932Z,10.10
2019-03-06T09:02:00.589Z,7.60
2019-03-06T09:04:35.396Z,8.20
2019-03-06T09:07:06.167Z,9.20
2019-03-06T09:09:36.925Z,8.13
2019-03-06T09:12:24.848Z,7.43
2019-03-06T09:15:01.728Z,7.70
2019-03-06T09:17:47.719Z,7.30
2019-03-06T09:20:35.394Z,9.27
2019-03-06T09:23:23.168Z,7.47
2019-03-06T09:26:06.119Z,8.90
2019-03-06T09:28:40.139Z,7.90
2019-03-06T09:31:10.912Z,6.67
2019-03-06T09:33:41.659Z,7.33
2019-03-06T09:36:12.436Z,7.20
2019-03-06T09:38:55.548Z,6.43
2019-03-06T09:41:32.259Z,7.53
2019-03-06T09:44:19.780Z,6.80
2019-03-06T09:46:51.419Z,8.10
2019-03-06T09:49:28.335Z,9.03
2019-03-06T09:51:59.111Z,7.97
2019-03-06T09:54:42.659Z,6.77
2019-03-06T09:57:19.400Z,7.37
2019-03-06T09:59:52.871Z,7.40
2019-03-06T10:02:32.366Z,7.03
2019-03-06T10:05:03.427Z,7.93
2019-03-06T10:07:44.316Z,6.40
2019-03-06T10:10:30.026Z,6.90
2019-03-06T10:13:09.599Z,9.27
2019-03-06T10:15:46.132Z,8.03
2019-03-06T10:18:19.843Z,7.37
2019-03-06T10:20:48.968Z,7.10
2019-03-06T10:23:18.083Z,7.77
2019-03-06T10:25:47.290Z,6.13
2019-03-06T10:28:16.705Z,6.53
2019-03-06T10:30:45.896Z,5.93
2019-03-06T10:33:15.411Z,5.67
2019-03-06T10:35:44.526Z,6.53
2019-03-06T10:38:16.762Z,6.57
2019-03-06T10:40:45.223Z,6.53
2019-03-06T10:43:14.418Z,5.80
2019-03-06T10:45:43.639Z,7.13
2019-03-06T10:48:13.402Z,7.23
2019-03-06T10:50:42.594Z,5.53
2019-03-06T10:53:11.803Z,6.97
2019-03-06T10:55:42.163Z,6.47
2019-03-06T10:58:11.290Z,7.13
2019-03-06T11:00:53.827Z,5.90
2019-03-06T11:03:24.851Z,7.63
2019-03-06T11:05:53.971Z,5.90
2019-03-06T11:08:24.993Z,6.77
2019-03-06T11:10:54.023Z,6.30
2019-03-06T11:13:23.791Z,6.53
2019-03-06T11:15:55.959Z,5.93
2019-03-06T11:18:25.384Z,7.13
2019-03-06T11:20:54.871Z,6.77
2019-03-06T11:23:25.009Z,6.13
2019-03-06T11:25:54.299Z,4.83
2019-03-06T11:28:24.113Z,4.23
2019-03-06T11:30:55.466Z,4.13
2019-03-06T11:33:25.042Z,5.13
2019-03-06T11:35:56.619Z,4.30
2019-03-06T11:38:26.382Z,4.50
2019-03-06T11:40:55.896Z,3.30
2019-03-06T11:43:25.086Z,4.23
2019-03-06T11:45:54.643Z,5.13
2019-03-06T11:48:23.778Z,4.20
2019-03-06T11:50:53.370Z,5.03
2019-03-06T11:53:23.050Z,6.60
2019-03-06T11:55:52.791Z,3.20
2019-03-06T11:58:21.927Z,3.90
2019-03-06T12:00:51.126Z,3.33
2019-03-06T12:03:21.267Z,4.43
2019-03-06T12:05:50.903Z,4.07
2019-03-06T12:08:20.509Z,4.30
2019-03-06T12:10:50.465Z,4.50
2019-03-06T12:13:21.207Z,3.20
2019-03-06T12:15:51.137Z,4.33
2019-03-06T12:18:21.615Z,4.27
2019-03-06T12:20:51.111Z,4.00
2019-03-06T12:23:20.256Z,6.20
2019-03-06T12:25:50.031Z,3.60
2019-03-06T12:28:20.011Z,6.60
2019-03-06T12:30:50.687Z,3.83
2019-03-06T12:33:22.639Z,4.77
2019-03-06T12:35:51.775Z,2.00
2019-03-06T12:38:21.163Z,3.17
2019-03-06T12:40:50.299Z,4.77
2019-03-06T12:43:19.423Z,3.10
2019-03-06T12:46:11.786Z,3.83
2019-03-06T12:48:40.919Z,2.77
2019-03-06T12:51:10.268Z,4.40
2019-03-06T12:53:40.474Z,2.17
2019-03-06T12:56:09.595Z,3.20
2019-03-06T12:58:39.139Z,2.93
2019-03-06T13:01:08.325Z,4.43
2019-03-06T13:03:37.742Z,2.60
2019-03-06T13:06:06.887Z,3.43
2019-03-06T13:08:36.463Z,3.80
2019-03-06T13:11:06.532Z,2.40
2019-03-06T13:13:35.923Z,3.50
2019-03-06T13:16:05.162Z,3.17
2019-03-06T13:18:34.283Z,3.80
2019-03-06T13:21:06.237Z,3.17
2019-03-06T13:23:35.631Z,3.00
2019-03-06T13:26:10.375Z,4.53
2019-03-06T13:28:35.798Z,4.23
2019-03-06T13:31:05.025Z,3.50
2019-03-06T13:33:44.607Z,3.83
2019-03-06T13:36:14.296Z,3.70
2019-03-06T13:38:43.494Z,3.77
2019-03-06T13:41:12.623Z,3.90
2019-03-06T13:43:41.741Z,4.20
2019-03-06T13:46:11.523Z,6.17
2019-03-06T13:48:40.909Z,5.03
2019-03-06T13:51:10.783Z,4.57
2019-03-06T13:53:40.323Z,4.60
2019-03-06T13:56:09.528Z,4.17
2019-03-06T13:58:38.723Z,4.03
2019-03-06T14:01:08.294Z,4.63
2019-03-06T14:03:37.492Z,3.80
2019-03-06T14:06:06.703Z,5.00
2019-03-06T14:08:36.134Z,4.63
2019-03-06T14:11:05.340Z,5.17
2019-03-06T14:13:34.552Z,4.40
2019-03-06T14:16:04.154Z,3.97
2019-03-06T14:18:33.275Z,4.57
2019-03-06T14:21:03.823Z,4.33
2019-03-06T14:23:35.366Z,5.40
2019-03-06T14:26:06.751Z,5.57
2019-03-06T14:28:48.392Z,4.70
2019-03-06T14:31:17.870Z,5.03
2019-03-06T14:33:47.066Z,7.10
2019-03-06T14:36:16.203Z,7.10
2019-03-06T14:38:45.319Z,3.83
2019-03-06T14:41:14.482Z,3.60
2019-03-06T14:43:43.662Z,4.20
2019-03-06T14:46:16.483Z,6.10
2019-03-06T14:48:43.692Z,6.50
2019-03-06T14:51:13.966Z,4.43
2019-03-06T14:53:43.527Z,4.97
2019-03-06T14:56:12.733Z,5.10
2019-03-06T14:58:42.233Z,3.97
2019-03-06T15:01:11.379Z,5.37
2019-03-06T15:03:40.550Z,3.90
2019-03-06T15:06:12.649Z,4.10
2019-03-06T15:08:41.693Z,4.57
2019-03-06T15:11:11.491Z,5.00
2019-03-06T15:13:40.915Z,3.80
2019-03-06T15:16:10.034Z,4.30
2019-03-06T15:18:39.179Z,5.87
2019-03-06T15:21:08.303Z,3.70
2019-03-06T15:23:38.511Z,4.33
2019-03-06T15:26:07.631Z,6.73
2019-03-06T15:28:37.150Z,3.80
2019-03-06T15:31:06.298Z,5.20
2019-03-06T15:33:35.991Z,4.60
2019-03-06T15:36:05.142Z,8.93
2019-03-06T15:38:34.337Z,9.70
2019-03-06T15:41:04.476Z,5.43
2019-03-06T15:43:34.438Z,4.13
2019-03-06T15:46:04.207Z,6.03
2019-03-06T15:48:33.359Z,4.20
2019-03-06T15:51:02.484Z,6.43
2019-03-06T15:53:31.638Z,4.30
2019-03-06T15:56:01.129Z,6.27
2019-03-06T15:58:30.319Z,5.77
2019-03-06T16:00:59.531Z,5.10
2019-03-06T16:03:29.224Z,46.43
2019-03-06T16:05:58.390Z,53.97
2019-03-06T16:08:28.049Z,12.70
2019-03-06T16:10:57.297Z,8.20
2019-03-06T16:13:26.419Z,12.78
2019-03-06T16:15:55.638Z,6.73
2019-03-06T16:18:24.851Z,4.80
2019-03-06T16:20:54.144Z,4.37
2019-03-06T16:23:24.103Z,5.20
2019-03-06T16:25:54.243Z,4.00
2019-03-06T16:28:23.363Z,4.00
2019-03-06T16:30:53.454Z,5.23
2019-03-06T16:33:22.611Z,4.57
2019-03-06T16:35:52.752Z,5.60
2019-03-06T16:38:21.875Z,5.30
2019-03-06T16:40:51.071Z,3.85
2019-03-06T16:43:20.227Z,5.40
2019-03-06T16:45:49.381Z,4.93
2019-03-06T16:48:18.574Z,4.43
2019-03-06T16:50:48.112Z,5.20
2019-03-06T16:53:17.710Z,5.07
2019-03-06T16:55:46.963Z,3.70
2019-03-06T16:58:17.123Z,5.57
2019-03-06T17:00:46.916Z,5.42
2019-03-06T17:03:16.776Z,4.20
2019-03-06T17:05:46.006Z,5.47
2019-03-06T17:08:15.240Z,4.77
2019-03-06T17:10:45.509Z,3.60
2019-03-06T17:13:15.326Z,4.37
2019-03-06T17:15:44.560Z,3.40
2019-03-06T17:18:15.055Z,5.90
2019-03-06T17:20:44.223Z,4.37
2019-03-06T17:23:13.660Z,3.10
2019-03-06T17:25:42.907Z,6.00
2019-03-06T17:28:13.023Z,4.37
2019-03-06T17:30:42.227Z,4.30
2019-03-06T17:33:15.506Z,8.47
2019-03-06T17:35:44.634Z,4.03
2019-03-06T17:38:17.081Z,3.77
2019-03-06T17:40:47.280Z,3.63
2019-03-06T17:43:16.390Z,3.83
2019-03-06T17:45:45.831Z,5.10
2019-03-06T17:48:15.524Z,6.47
2019-03-06T17:50:44.755Z,4.33
2019-03-06T17:53:13.918Z,4.57
2019-03-06T17:55:43.035Z,4.13
2019-03-06T17:58:12.209Z,5.07
2019-03-06T18:00:49.558Z,5.07
2019-03-06T18:03:20.931Z,3.83
2019-03-06T18:05:50.168Z,5.63
2019-03-06T18:08:19.346Z,50.43
2019-03-06T18:10:49.082Z,5.07
2019-03-06T18:13:18.391Z,20.90
2019-03-06T18:15:47.776Z,6.70
2019-03-06T18:18:16.936Z,8.30
2019-03-06T18:20:46.132Z,5.90
2019-03-06T18:23:15.259Z,14.87
2019-03-06T18:25:44.423Z,6.10
2019-03-06T18:28:13.591Z,4.63
2019-03-06T18:30:42.715Z,4.77
2019-03-06T18:33:11.911Z,5.77
2019-03-06T18:35:41.075Z,4.30
2019-03-06T18:38:10.196Z,3.17
2019-03-06T18:40:39.322Z,4.93
2019-03-06T18:43:08.475Z,2.90
2019-03-06T18:45:37.600Z,4.77
2019-03-06T18:48:06.834Z,4.30
2019-03-06T18:50:36.355Z,3.97
2019-03-06T18:53:05.479Z,3.43
2019-03-06T18:55:35.188Z,3.67
2019-03-06T18:58:04.303Z,3.30
2019-03-06T19:00:33.866Z,3.07
2019-03-06T19:03:03.646Z,3.17
2019-03-06T19:05:32.885Z,4.07
2019-03-06T19:08:02.123Z,3.13
2019-03-06T19:10:31.811Z,3.03
2019-03-06T19:13:02.365Z,4.27
2019-03-06T19:15:31.527Z,3.33
2019-03-06T19:18:01.789Z,2.20
2019-03-06T19:20:31.870Z,4.17
2019-03-06T19:23:02.180Z,3.13
2019-03-06T19:25:31.482Z,2.63
2019-03-06T19:28:02.627Z,2.87
2019-03-06T19:30:31.803Z,3.07
2019-03-06T19:33:01.383Z,2.63
2019-03-06T19:35:30.542Z,4.37
2019-03-06T19:37:59.738Z,2.87
2019-03-06T19:40:29.139Z,3.03
2019-03-06T19:42:58.383Z,2.60
2019-03-06T19:45:27.569Z,2.57
2019-03-06T19:47:56.758Z,2.43
2019-03-06T19:50:26.948Z,3.93
2019-03-06T19:52:56.154Z,1.83
2019-03-06T19:55:25.583Z,4.53
2019-03-06T19:57:59.171Z,3.50
2019-03-06T20:00:29.748Z,2.33
2019-03-06T20:02:59.449Z,3.03
2019-03-06T20:05:31.293Z,2.47
2019-03-06T20:08:01.838Z,1.40
2019-03-06T20:10:31.311Z,2.60
2019-03-06T20:13:00.551Z,2.97
2019-03-06T20:15:29.720Z,1.97
2019-03-06T20:17:58.839Z,3.97
2019-03-06T20:20:27.960Z,2.73
2019-03-06T20:22:57.462Z,6.80
2019-03-06T20:25:27.944Z,2.90
2019-03-06T20:27:57.176Z,1.90
2019-03-06T20:30:26.941Z,5.00
2019-03-06T20:32:57.169Z,2.93
2019-03-06T20:35:26.650Z,3.67
2019-03-06T20:37:56.142Z,4.00
2019-03-06T20:40:25.262Z,2.17
2019-03-06T20:42:54.455Z,6.00
2019-03-06T20:45:23.704Z,2.40
2019-03-06T20:47:53.147Z,2.90
2019-03-06T20:50:22.845Z,2.07
2019-03-06T20:52:52.035Z,4.67
2019-03-06T20:55:21.194Z,1.97
2019-03-06T20:57:50.991Z,1.77
2019-03-06T21:00:25.455Z,2.63
2019-03-06T21:02:54.643Z,4.57
2019-03-06T21:05:24.482Z,3.90
2019-03-06T21:07:54.210Z,1.50
2019-03-06T21:10:23.408Z,2.43
2019-03-06T21:12:53.611Z,1.53
2019-03-06T21:15:23.643Z,2.47
2019-03-06T21:17:52.857Z,2.63
2019-03-06T21:20:22.939Z,4.00
2019-03-06T21:22:52.179Z,3.17
2019-03-06T21:25:21.949Z,2.70
2019-03-06T21:27:51.847Z,3.47
2019-03-06T21:30:24.080Z,5.17
2019-03-06T21:32:54.239Z,2.80
2019-03-06T21:35:23.435Z,3.07
2019-03-06T21:37:52.588Z,2.80
2019-03-06T21:40:21.851Z,2.67
2019-03-06T21:42:52.087Z,2.27
2019-03-06T21:45:21.299Z,2.20
2019-03-06T21:47:50.456Z,3.10
2019-03-06T21:50:19.954Z,1.73
2019-03-06T21:52:49.141Z,1.87
2019-03-06T21:55:18.335Z,2.37
2019-03-06T21:57:47.741Z,2.77
2019-03-06T22:00:24.577Z,3.10
2019-03-06T22:02:53.780Z,2.33
2019-03-06T22:05:22.965Z,1.87
2019-03-06T22:07:52.186Z,2.40
2019-03-06T22:10:21.370Z,2.67
2019-03-06T22:12:50.761Z,3.97
2019-03-06T22:15:21.579Z,2.80
2019-03-06T22:17:50.776Z,4.13
2019-03-06T22:20:19.907Z,2.43
2019-03-06T22:22:49.059Z,3.77
2019-03-06T22:25:18.888Z,2.70
2019-03-06T22:27:48.099Z,2.83
2019-03-06T22:30:23.654Z,3.57
2019-03-06T22:32:52.790Z,2.17
2019-03-06T22:35:21.977Z,3.53
2019-03-06T22:37:51.306Z,3.93
2019-03-06T22:40:21.143Z,2.67
2019-03-06T22:42:51.263Z,2.83
2019-03-06T22:45:21.143Z,2.23
2019-03-06T22:47:50.348Z,1.80
2019-03-06T22:50:19.746Z,3.17
2019-03-06T22:52:49.155Z,2.60
2019-03-06T22:55:19.031Z,2.00
2019-03-06T22:57:48.227Z,3.60
2019-03-06T23:00:29.631Z,3.27
2019-03-06T23:03:00.439Z,1.70
2019-03-06T23:05:31.471Z,2.00
2019-03-06T23:08:00.598Z,2.40
2019-03-06T23:10:30.172Z,2.50
2019-03-06T23:12:59.971Z,2.20
